sensor_id;sensor_type;location;lat;lon;timestamp;P1;durP1;ratioP1;P2;durP2;ratioP2
19985;SDS011;10154;52.474;10.768;2023-03-17T00:00:44;4.40;;;2.00;;
19985;SDS011;10154;52.474;10.768;2023-03-17T00:03:15;4.10;;;2.03;;
19985;SDS011;10154;52.474;10.768;2023-03-17T00:05:44;5.27;;;2.23;;
19985;SDS011;10154;52.474;10.768;2023-03-17T00:08:32;6.27;;;2.40;;
19985;SDS011;10154;52.474;10.768;2023-03-17T00:10:57;5.13;;;2.20;;
19985;SDS011;10154;52.474;10.768;2023-03-17T00:13:23;4.73;;;2.13;;
19985;SDS011;10154;52.474;10.768;2023-03-17T00:15:53;6.97;;;2.40;;
19985;SDS011;10154;52.474;10.768;2023-03-17T00:18:21;4.23;;;2.13;;
19985;SDS011;10154;52.474;10.768;2023-03-17T00:20:46;3.67;;;2.13;;
19985;SDS011;10154;52.474;10.768;2023-03-17T00:23:19;2.90;;;1.90;;
19985;SDS011;10154;52.474;10.768;2023-03-17T00:25:46;2.67;;;1.70;;
19985;SDS011;10154;52.474;10.768;2023-03-17T00:28:14;5.70;;;2.33;;
19985;SDS011;10154;52.474;10.768;2023-03-17T00:30:42;7.63;;;1.80;;
19985;SDS011;10154;52.474;10.768;2023-03-17T00:33:08;5.57;;;2.10;;
19985;SDS011;10154;52.474;10.768;2023-03-17T00:35:34;4.00;;;2.23;;
19985;SDS011;10154;52.474;10.768;2023-03-17T00:37:59;6.47;;;2.23;;
19985;SDS011;10154;52.474;10.768;2023-03-17T00:40:26;4.03;;;2.00;;
19985;SDS011;10154;52.474;10.768;2023-03-17T00:42:57;4.77;;;2.10;;
19985;SDS011;10154;52.474;10.768;2023-03-17T00:45:24;5.67;;;1.50;;
19985;SDS011;10154;52.474;10.768;2023-03-17T00:47:51;5.03;;;2.03;;
19985;SDS011;10154;52.474;10.768;2023-03-17T00:50:18;4.73;;;2.40;;
19985;SDS011;10154;52.474;10.768;2023-03-17T00:52:49;4.90;;;2.07;;
19985;SDS011;10154;52.474;10.768;2023-03-17T00:55:16;4.07;;;2.20;;
19985;SDS011;10154;52.474;10.768;2023-03-17T00:57:43;3.33;;;1.90;;
19985;SDS011;10154;52.474;10.768;2023-03-17T01:00:27;5.43;;;2.27;;
19985;SDS011;10154;52.474;10.768;2023-03-17T01:02:54;4.07;;;1.87;;
19985;SDS011;10154;52.474;10.768;2023-03-17T01:05:22;4.63;;;2.30;;
19985;SDS011;10154;52.474;10.768;2023-03-17T01:07:49;5.07;;;2.37;;
19985;SDS011;10154;52.474;10.768;2023-03-17T01:10:21;6.13;;;2.43;;
19985;SDS011;10154;52.474;10.768;2023-03-17T01:12:48;5.17;;;2.60;;
19985;SDS011;10154;52.474;10.768;2023-03-17T01:15:14;6.03;;;3.10;;
19985;SDS011;10154;52.474;10.768;2023-03-17T01:17:40;7.07;;;3.10;;
19985;SDS011;10154;52.474;10.768;2023-03-17T01:20:06;6.33;;;2.63;;
19985;SDS011;10154;52.474;10.768;2023-03-17T01:22:33;5.63;;;3.00;;
19985;SDS011;10154;52.474;10.768;2023-03-17T01:24:58;5.63;;;2.90;;
19985;SDS011;10154;52.474;10.768;2023-03-17T01:27:24;9.07;;;3.13;;
19985;SDS011;10154;52.474;10.768;2023-03-17T01:29:52;5.50;;;2.83;;
19985;SDS011;10154;52.474;10.768;2023-03-17T01:32:18;8.03;;;2.90;;
19985;SDS011;10154;52.474;10.768;2023-03-17T01:34:44;8.00;;;3.27;;
19985;SDS011;10154;52.474;10.768;2023-03-17T01:37:09;6.00;;;3.00;;
19985;SDS011;10154;52.474;10.768;2023-03-17T01:39:35;7.13;;;3.30;;
19985;SDS011;10154;52.474;10.768;2023-03-17T01:42:00;8.03;;;3.10;;
19985;SDS011;10154;52.474;10.768;2023-03-17T01:44:25;7.30;;;3.50;;
19985;SDS011;10154;52.474;10.768;2023-03-17T01:46:51;6.23;;;3.10;;
19985;SDS011;10154;52.474;10.768;2023-03-17T01:49:27;9.70;;;3.47;;
19985;SDS011;10154;52.474;10.768;2023-03-17T01:52:13;6.87;;;2.97;;
19985;SDS011;10154;52.474;10.768;2023-03-17T01:57:14;5.30;;;3.10;;
19985;SDS011;10154;52.474;10.768;2023-03-17T01:59:43;9.17;;;3.13;;
19985;SDS011;10154;52.474;10.768;2023-03-17T02:02:11;6.83;;;3.30;;
19985;SDS011;10154;52.474;10.768;2023-03-17T02:04:40;9.60;;;3.20;;
19985;SDS011;10154;52.474;10.768;2023-03-17T02:07:06;5.97;;;3.30;;
19985;SDS011;10154;52.474;10.768;2023-03-17T02:09:31;6.13;;;2.70;;
19985;SDS011;10154;52.474;10.768;2023-03-17T02:11:58;8.17;;;3.00;;
19985;SDS011;10154;52.474;10.768;2023-03-17T02:14:24;5.60;;;3.17;;
19985;SDS011;10154;52.474;10.768;2023-03-17T02:16:50;7.53;;;3.07;;
19985;SDS011;10154;52.474;10.768;2023-03-17T02:19:15;7.17;;;2.97;;
19985;SDS011;10154;52.474;10.768;2023-03-17T02:21:54;14.17;;;3.50;;
19985;SDS011;10154;52.474;10.768;2023-03-17T02:24:26;5.83;;;2.90;;
19985;SDS011;10154;52.474;10.768;2023-03-17T02:26:57;5.97;;;3.07;;
19985;SDS011;10154;52.474;10.768;2023-03-17T02:29:25;5.87;;;3.20;;
19985;SDS011;10154;52.474;10.768;2023-03-17T02:31:51;9.83;;;3.30;;
19985;SDS011;10154;52.474;10.768;2023-03-17T02:34:17;6.50;;;3.00;;
19985;SDS011;10154;52.474;10.768;2023-03-17T02:36:43;7.80;;;3.23;;
19985;SDS011;10154;52.474;10.768;2023-03-17T02:39:08;6.90;;;3.17;;
19985;SDS011;10154;52.474;10.768;2023-03-17T02:41:34;7.20;;;3.03;;
19985;SDS011;10154;52.474;10.768;2023-03-17T02:43:59;7.87;;;3.70;;
19985;SDS011;10154;52.474;10.768;2023-03-17T02:46:25;7.10;;;3.27;;
19985;SDS011;10154;52.474;10.768;2023-03-17T02:48:51;6.80;;;3.37;;
19985;SDS011;10154;52.474;10.768;2023-03-17T02:51:17;7.20;;;3.40;;
19985;SDS011;10154;52.474;10.768;2023-03-17T02:53:42;6.33;;;3.40;;
19985;SDS011;10154;52.474;10.768;2023-03-17T02:56:07;7.77;;;3.77;;
19985;SDS011;10154;52.474;10.768;2023-03-17T02:58:33;8.03;;;3.40;;
19985;SDS011;10154;52.474;10.768;2023-03-17T03:00:59;6.97;;;3.37;;
19985;SDS011;10154;52.474;10.768;2023-03-17T03:03:25;6.53;;;3.23;;
19985;SDS011;10154;52.474;10.768;2023-03-17T03:05:50;8.23;;;3.40;;
19985;SDS011;10154;52.474;10.768;2023-03-17T03:08:15;5.80;;;3.50;;
19985;SDS011;10154;52.474;10.768;2023-03-17T03:10:41;7.00;;;3.37;;
19985;SDS011;10154;52.474;10.768;2023-03-17T03:13:07;5.43;;;2.97;;
19985;SDS011;10154;52.474;10.768;2023-03-17T03:15:32;7.27;;;3.30;;
19985;SDS011;10154;52.474;10.768;2023-03-17T03:17:57;8.00;;;3.27;;
19985;SDS011;10154;52.474;10.768;2023-03-17T03:20:23;5.90;;;3.23;;
19985;SDS011;10154;52.474;10.768;2023-03-17T03:22:49;7.10;;;3.50;;
19985;SDS011;10154;52.474;10.768;2023-03-17T03:25:14;10.53;;;3.23;;
19985;SDS011;10154;52.474;10.768;2023-03-17T03:27:40;7.47;;;3.20;;
19985;SDS011;10154;52.474;10.768;2023-03-17T03:30:05;6.03;;;2.90;;
19985;SDS011;10154;52.474;10.768;2023-03-17T03:32:32;7.60;;;3.10;;
19985;SDS011;10154;52.474;10.768;2023-03-17T03:34:58;7.97;;;3.50;;
19985;SDS011;10154;52.474;10.768;2023-03-17T03:37:23;6.27;;;3.30;;
19985;SDS011;10154;52.474;10.768;2023-03-17T03:39:49;6.00;;;3.50;;
19985;SDS011;10154;52.474;10.768;2023-03-17T03:42:15;8.30;;;3.90;;
19985;SDS011;10154;52.474;10.768;2023-03-17T03:44:40;9.47;;;3.47;;
19985;SDS011;10154;52.474;10.768;2023-03-17T03:47:06;8.90;;;3.73;;
19985;SDS011;10154;52.474;10.768;2023-03-17T03:49:32;7.43;;;3.47;;
19985;SDS011;10154;52.474;10.768;2023-03-17T03:51:57;6.33;;;3.40;;
19985;SDS011;10154;52.474;10.768;2023-03-17T03:54:23;6.90;;;3.17;;
19985;SDS011;10154;52.474;10.768;2023-03-17T03:56:48;7.77;;;3.70;;
19985;SDS011;10154;52.474;10.768;2023-03-17T03:59:13;6.53;;;3.10;;
19985;SDS011;10154;52.474;10.768;2023-03-17T04:01:39;7.20;;;3.47;;
19985;SDS011;10154;52.474;10.768;2023-03-17T04:04:05;8.60;;;3.83;;
19985;SDS011;10154;52.474;10.768;2023-03-17T04:06:31;6.73;;;3.60;;
19985;SDS011;10154;52.474;10.768;2023-03-17T04:08:56;6.17;;;3.50;;
19985;SDS011;10154;52.474;10.768;2023-03-17T04:11:22;6.70;;;3.63;;
19985;SDS011;10154;52.474;10.768;2023-03-17T04:13:47;6.47;;;3.33;;
19985;SDS011;10154;52.474;10.768;2023-03-17T04:16:12;9.73;;;3.47;;
19985;SDS011;10154;52.474;10.768;2023-03-17T04:18:38;7.87;;;3.70;;
19985;SDS011;10154;52.474;10.768;2023-03-17T04:21:03;6.60;;;3.63;;
19985;SDS011;10154;52.474;10.768;2023-03-17T04:23:28;8.90;;;3.90;;
19985;SDS011;10154;52.474;10.768;2023-03-17T04:25:55;5.67;;;3.40;;
19985;SDS011;10154;52.474;10.768;2023-03-17T04:28:20;5.90;;;3.27;;
19985;SDS011;10154;52.474;10.768;2023-03-17T04:30:46;8.87;;;3.70;;
19985;SDS011;10154;52.474;10.768;2023-03-17T04:33:11;7.13;;;3.60;;
19985;SDS011;10154;52.474;10.768;2023-03-17T04:35:37;8.83;;;3.50;;
19985;SDS011;10154;52.474;10.768;2023-03-17T04:38:03;10.77;;;3.87;;
19985;SDS011;10154;52.474;10.768;2023-03-17T04:40:28;7.43;;;3.77;;
19985;SDS011;10154;52.474;10.768;2023-03-17T04:42:53;9.07;;;4.10;;
19985;SDS011;10154;52.474;10.768;2023-03-17T04:45:19;7.33;;;3.47;;
19985;SDS011;10154;52.474;10.768;2023-03-17T04:47:45;6.77;;;3.23;;
19985;SDS011;10154;52.474;10.768;2023-03-17T04:50:11;5.43;;;3.33;;
19985;SDS011;10154;52.474;10.768;2023-03-17T04:52:38;6.23;;;3.27;;
19985;SDS011;10154;52.474;10.768;2023-03-17T04:55:03;7.87;;;3.70;;
19985;SDS011;10154;52.474;10.768;2023-03-17T04:57:30;7.00;;;4.00;;
19985;SDS011;10154;52.474;10.768;2023-03-17T04:59:56;7.10;;;3.33;;
19985;SDS011;10154;52.474;10.768;2023-03-17T05:02:22;8.30;;;3.90;;
19985;SDS011;10154;52.474;10.768;2023-03-17T05:04:47;9.67;;;3.70;;
19985;SDS011;10154;52.474;10.768;2023-03-17T05:07:13;6.37;;;3.37;;
19985;SDS011;10154;52.474;10.768;2023-03-17T05:09:38;6.37;;;3.40;;
19985;SDS011;10154;52.474;10.768;2023-03-17T05:12:04;7.93;;;3.87;;
19985;SDS011;10154;52.474;10.768;2023-03-17T05:14:30;8.37;;;3.60;;
19985;SDS011;10154;52.474;10.768;2023-03-17T05:16:55;6.97;;;3.70;;
19985;SDS011;10154;52.474;10.768;2023-03-17T05:19:21;9.93;;;3.90;;
19985;SDS011;10154;52.474;10.768;2023-03-17T05:21:46;6.20;;;3.63;;
19985;SDS011;10154;52.474;10.768;2023-03-17T05:24:12;7.13;;;4.00;;
19985;SDS011;10154;52.474;10.768;2023-03-17T05:26:37;7.13;;;3.80;;
19985;SDS011;10154;52.474;10.768;2023-03-17T05:29:04;7.87;;;3.33;;
19985;SDS011;10154;52.474;10.768;2023-03-17T05:31:29;6.43;;;3.73;;
19985;SDS011;10154;52.474;10.768;2023-03-17T05:33:55;7.93;;;4.10;;
19985;SDS011;10154;52.474;10.768;2023-03-17T05:36:21;8.40;;;4.13;;
19985;SDS011;10154;52.474;10.768;2023-03-17T05:38:46;7.10;;;3.87;;
19985;SDS011;10154;52.474;10.768;2023-03-17T05:41:12;8.63;;;4.10;;
19985;SDS011;10154;52.474;10.768;2023-03-17T05:43:37;8.30;;;3.67;;
19985;SDS011;10154;52.474;10.768;2023-03-17T05:46:03;10.43;;;3.80;;
19985;SDS011;10154;52.474;10.768;2023-03-17T05:48:29;7.10;;;3.63;;
19985;SDS011;10154;52.474;10.768;2023-03-17T05:50:55;8.60;;;4.03;;
19985;SDS011;10154;52.474;10.768;2023-03-17T05:53:20;7.53;;;3.67;;
19985;SDS011;10154;52.474;10.768;2023-03-17T05:55:46;8.03;;;4.00;;
19985;SDS011;10154;52.474;10.768;2023-03-17T05:58:12;6.90;;;3.90;;
19985;SDS011;10154;52.474;10.768;2023-03-17T06:00:39;9.13;;;3.67;;
19985;SDS011;10154;52.474;10.768;2023-03-17T06:03:05;7.63;;;3.83;;
19985;SDS011;10154;52.474;10.768;2023-03-17T06:05:31;8.00;;;3.90;;
19985;SDS011;10154;52.474;10.768;2023-03-17T06:07:57;7.80;;;3.63;;
19985;SDS011;10154;52.474;10.768;2023-03-17T06:10:23;9.70;;;4.00;;
19985;SDS011;10154;52.474;10.768;2023-03-17T06:12:48;8.30;;;4.20;;
19985;SDS011;10154;52.474;10.768;2023-03-17T06:15:14;8.87;;;3.83;;
19985;SDS011;10154;52.474;10.768;2023-03-17T06:17:41;10.33;;;4.20;;
19985;SDS011;10154;52.474;10.768;2023-03-17T06:20:06;6.93;;;3.90;;
19985;SDS011;10154;52.474;10.768;2023-03-17T06:22:32;7.83;;;4.13;;
19985;SDS011;10154;52.474;10.768;2023-03-17T06:24:58;7.47;;;4.00;;
19985;SDS011;10154;52.474;10.768;2023-03-17T06:27:23;11.03;;;4.40;;
19985;SDS011;10154;52.474;10.768;2023-03-17T06:29:49;11.23;;;4.37;;
19985;SDS011;10154;52.474;10.768;2023-03-17T06:32:14;8.90;;;4.17;;
19985;SDS011;10154;52.474;10.768;2023-03-17T06:34:39;9.10;;;4.20;;
19985;SDS011;10154;52.474;10.768;2023-03-17T06:37:06;9.73;;;3.90;;
19985;SDS011;10154;52.474;10.768;2023-03-17T06:39:32;7.57;;;3.87;;
19985;SDS011;10154;52.474;10.768;2023-03-17T06:41:58;8.73;;;3.60;;
19985;SDS011;10154;52.474;10.768;2023-03-17T06:44:23;9.90;;;4.07;;
19985;SDS011;10154;52.474;10.768;2023-03-17T06:46:49;8.37;;;4.23;;
19985;SDS011;10154;52.474;10.768;2023-03-17T06:49:14;8.37;;;3.50;;
19985;SDS011;10154;52.474;10.768;2023-03-17T06:51:39;7.10;;;4.07;;
19985;SDS011;10154;52.474;10.768;2023-03-17T06:54:05;6.47;;;3.50;;
19985;SDS011;10154;52.474;10.768;2023-03-17T06:56:31;7.50;;;3.70;;
19985;SDS011;10154;52.474;10.768;2023-03-17T06:58:56;8.23;;;3.93;;
19985;SDS011;10154;52.474;10.768;2023-03-17T07:01:22;8.70;;;3.87;;
19985;SDS011;10154;52.474;10.768;2023-03-17T07:03:48;6.83;;;3.50;;
19985;SDS011;10154;52.474;10.768;2023-03-17T07:06:13;7.03;;;3.83;;
19985;SDS011;10154;52.474;10.768;2023-03-17T07:08:39;10.03;;;3.97;;
19985;SDS011;10154;52.474;10.768;2023-03-17T07:11:05;10.50;;;3.50;;
19985;SDS011;10154;52.474;10.768;2023-03-17T07:13:31;7.63;;;4.00;;
19985;SDS011;10154;52.474;10.768;2023-03-17T07:15:59;8.33;;;3.80;;
19985;SDS011;10154;52.474;10.768;2023-03-17T07:18:27;9.27;;;4.00;;
19985;SDS011;10154;52.474;10.768;2023-03-17T07:20:56;7.37;;;3.67;;
19985;SDS011;10154;52.474;10.768;2023-03-17T07:23:22;8.77;;;3.93;;
19985;SDS011;10154;52.474;10.768;2023-03-17T07:25:48;9.97;;;4.33;;
19985;SDS011;10154;52.474;10.768;2023-03-17T07:28:13;7.77;;;4.20;;
19985;SDS011;10154;52.474;10.768;2023-03-17T07:30:39;6.20;;;3.93;;
19985;SDS011;10154;52.474;10.768;2023-03-17T07:33:07;9.93;;;4.10;;
19985;SDS011;10154;52.474;10.768;2023-03-17T07:35:33;7.03;;;3.47;;
19985;SDS011;10154;52.474;10.768;2023-03-17T07:37:58;9.53;;;4.10;;
19985;SDS011;10154;52.474;10.768;2023-03-17T07:40:23;7.63;;;3.80;;
19985;SDS011;10154;52.474;10.768;2023-03-17T07:42:50;8.57;;;4.17;;
19985;SDS011;10154;52.474;10.768;2023-03-17T07:45:15;9.03;;;3.73;;
19985;SDS011;10154;52.474;10.768;2023-03-17T07:47:40;10.10;;;4.13;;
19985;SDS011;10154;52.474;10.768;2023-03-17T07:50:06;8.50;;;3.60;;
19985;SDS011;10154;52.474;10.768;2023-03-17T07:52:31;9.43;;;3.70;;
19985;SDS011;10154;52.474;10.768;2023-03-17T07:54:58;8.53;;;3.57;;
19985;SDS011;10154;52.474;10.768;2023-03-17T07:57:23;7.63;;;3.93;;
19985;SDS011;10154;52.474;10.768;2023-03-17T07:59:49;6.17;;;3.30;;
19985;SDS011;10154;52.474;10.768;2023-03-17T08:02:15;7.87;;;3.43;;
19985;SDS011;10154;52.474;10.768;2023-03-17T08:04:42;6.83;;;3.27;;
19985;SDS011;10154;52.474;10.768;2023-03-17T08:07:08;10.70;;;3.90;;
19985;SDS011;10154;52.474;10.768;2023-03-17T08:09:34;8.10;;;3.70;;
19985;SDS011;10154;52.474;10.768;2023-03-17T08:12:01;6.63;;;3.70;;
19985;SDS011;10154;52.474;10.768;2023-03-17T08:14:27;6.37;;;3.37;;
19985;SDS011;10154;52.474;10.768;2023-03-17T08:16:53;7.20;;;3.17;;
19985;SDS011;10154;52.474;10.768;2023-03-17T08:19:18;8.77;;;3.47;;
19985;SDS011;10154;52.474;10.768;2023-03-17T08:21:43;6.80;;;3.30;;
19985;SDS011;10154;52.474;10.768;2023-03-17T08:24:09;6.23;;;3.57;;
19985;SDS011;10154;52.474;10.768;2023-03-17T08:26:34;6.43;;;3.37;;
19985;SDS011;10154;52.474;10.768;2023-03-17T08:29:01;8.20;;;3.77;;
19985;SDS011;10154;52.474;10.768;2023-03-17T08:31:31;5.50;;;3.50;;
19985;SDS011;10154;52.474;10.768;2023-03-17T08:33:57;8.17;;;4.00;;
19985;SDS011;10154;52.474;10.768;2023-03-17T08:36:32;8.40;;;3.37;;
19985;SDS011;10154;52.474;10.768;2023-03-17T08:49:03;6.37;;;3.57;;
19985;SDS011;10154;52.474;10.768;2023-03-17T08:51:29;5.27;;;3.20;;
19985;SDS011;10154;52.474;10.768;2023-03-17T08:53:56;5.43;;;3.70;;
19985;SDS011;10154;52.474;10.768;2023-03-17T08:56:22;6.13;;;3.77;;
19985;SDS011;10154;52.474;10.768;2023-03-17T08:58:49;7.67;;;3.73;;
19985;SDS011;10154;52.474;10.768;2023-03-17T09:01:15;8.60;;;3.53;;
19985;SDS011;10154;52.474;10.768;2023-03-17T09:03:42;5.83;;;3.20;;
19985;SDS011;10154;52.474;10.768;2023-03-17T09:06:08;5.73;;;3.27;;
19985;SDS011;10154;52.474;10.768;2023-03-17T09:08:35;7.33;;;3.40;;
19985;SDS011;10154;52.474;10.768;2023-03-17T09:11:05;5.47;;;3.33;;
19985;SDS011;10154;52.474;10.768;2023-03-17T09:13:32;4.87;;;3.20;;
19985;SDS011;10154;52.474;10.768;2023-03-17T09:15:59;7.13;;;3.27;;
19985;SDS011;10154;52.474;10.768;2023-03-17T09:18:25;8.70;;;3.37;;
19985;SDS011;10154;52.474;10.768;2023-03-17T09:20:51;7.73;;;3.40;;
19985;SDS011;10154;52.474;10.768;2023-03-17T09:23:16;4.73;;;3.00;;
19985;SDS011;10154;52.474;10.768;2023-03-17T09:25:42;6.50;;;3.60;;
19985;SDS011;10154;52.474;10.768;2023-03-17T09:28:08;5.00;;;3.20;;
19985;SDS011;10154;52.474;10.768;2023-03-17T09:30:35;7.63;;;3.33;;
19985;SDS011;10154;52.474;10.768;2023-03-17T09:33:00;7.03;;;3.40;;
19985;SDS011;10154;52.474;10.768;2023-03-17T09:35:26;4.73;;;2.90;;
19985;SDS011;10154;52.474;10.768;2023-03-17T09:37:52;6.03;;;3.30;;
19985;SDS011;10154;52.474;10.768;2023-03-17T09:40:19;5.15;;;3.10;;
19985;SDS011;10154;52.474;10.768;2023-03-17T09:45:34;6.15;;;2.95;;
19985;SDS011;10154;52.474;10.768;2023-03-17T09:56:12;5.40;;;3.45;;
19985;SDS011;10154;52.474;10.768;2023-03-17T09:58:39;5.97;;;3.38;;
19985;SDS011;10154;52.474;10.768;2023-03-17T10:01:07;7.05;;;3.28;;
19985;SDS011;10154;52.474;10.768;2023-03-17T10:03:34;9.75;;;3.53;;
19985;SDS011;10154;52.474;10.768;2023-03-17T10:09:04;7.57;;;3.15;;
19985;SDS011;10154;52.474;10.768;2023-03-17T10:11:42;5.13;;;3.08;;
19985;SDS011;10154;52.474;10.768;2023-03-17T10:14:21;4.53;;;3.33;;
19985;SDS011;10154;52.474;10.768;2023-03-17T10:17:14;5.22;;;3.40;;
19985;SDS011;10154;52.474;10.768;2023-03-17T10:19:57;5.25;;;2.95;;
19985;SDS011;10154;52.474;10.768;2023-03-17T10:22:40;6.00;;;3.30;;
19985;SDS011;10154;52.474;10.768;2023-03-17T10:25:17;4.57;;;3.15;;
19985;SDS011;10154;52.474;10.768;2023-03-17T10:27:47;7.20;;;3.53;;
19985;SDS011;10154;52.474;10.768;2023-03-17T10:30:38;5.05;;;3.22;;
19985;SDS011;10154;52.474;10.768;2023-03-17T10:33:04;4.70;;;3.28;;
19985;SDS011;10154;52.474;10.768;2023-03-17T10:35:33;6.88;;;3.53;;
19985;SDS011;10154;52.474;10.768;2023-03-17T10:38:00;6.70;;;3.45;;
19985;SDS011;10154;52.474;10.768;2023-03-17T10:40:27;5.15;;;3.03;;
19985;SDS011;10154;52.474;10.768;2023-03-17T10:43:01;4.93;;;3.55;;
19985;SDS011;10154;52.474;10.768;2023-03-17T10:45:35;6.10;;;3.05;;
19985;SDS011;10154;52.474;10.768;2023-03-17T10:48:06;8.57;;;3.45;;
19985;SDS011;10154;52.474;10.768;2023-03-17T10:50:33;6.70;;;3.53;;
19985;SDS011;10154;52.474;10.768;2023-03-17T10:53:05;5.63;;;3.42;;
19985;SDS011;10154;52.474;10.768;2023-03-17T10:55:38;8.10;;;3.35;;
19985;SDS011;10154;52.474;10.768;2023-03-17T10:58:11;6.32;;;3.67;;
19985;SDS011;10154;52.474;10.768;2023-03-17T11:00:39;6.95;;;3.28;;
19985;SDS011;10154;52.474;10.768;2023-03-17T11:03:21;4.30;;;3.17;;
19985;SDS011;10154;52.474;10.768;2023-03-17T11:08:40;5.05;;;3.10;;
19985;SDS011;10154;52.474;10.768;2023-03-17T11:11:20;5.13;;;3.22;;
19985;SDS011;10154;52.474;10.768;2023-03-17T11:13:46;7.85;;;3.13;;
19985;SDS011;10154;52.474;10.768;2023-03-17T11:16:22;5.13;;;3.20;;
19985;SDS011;10154;52.474;10.768;2023-03-17T11:18:48;4.40;;;2.83;;
19985;SDS011;10154;52.474;10.768;2023-03-17T11:21:28;4.47;;;2.80;;
19985;SDS011;10154;52.474;10.768;2023-03-17T11:24:18;4.55;;;2.47;;
19985;SDS011;10154;52.474;10.768;2023-03-17T11:27:17;4.10;;;2.88;;
19985;SDS011;10154;52.474;10.768;2023-03-17T11:40:34;8.48;;;3.10;;
19985;SDS011;10154;52.474;10.768;2023-03-17T11:46:08;4.22;;;2.50;;
19985;SDS011;10154;52.474;10.768;2023-03-17T12:07:44;3.70;;;2.55;;
19985;SDS011;10154;52.474;10.768;2023-03-17T12:10:18;6.47;;;2.40;;
19985;SDS011;10154;52.474;10.768;2023-03-17T12:12:49;4.70;;;2.65;;
19985;SDS011;10154;52.474;10.768;2023-03-17T12:15:30;6.40;;;2.67;;
19985;SDS011;10154;52.474;10.768;2023-03-17T12:18:01;5.65;;;2.38;;
19985;SDS011;10154;52.474;10.768;2023-03-17T12:20:36;6.47;;;2.60;;
19985;SDS011;10154;52.474;10.768;2023-03-17T12:23:21;3.42;;;2.53;;
19985;SDS011;10154;52.474;10.768;2023-03-17T12:26:13;3.83;;;2.40;;
19985;SDS011;10154;52.474;10.768;2023-03-17T12:31:30;3.72;;;2.47;;
19985;SDS011;10154;52.474;10.768;2023-03-17T12:34:07;4.53;;;2.40;;
19985;SDS011;10154;52.474;10.768;2023-03-17T12:36:39;6.45;;;2.50;;
19985;SDS011;10154;52.474;10.768;2023-03-17T12:39:06;5.38;;;2.60;;
19985;SDS011;10154;52.474;10.768;2023-03-17T12:41:42;4.82;;;2.22;;
19985;SDS011;10154;52.474;10.768;2023-03-17T12:44:39;4.93;;;2.40;;
19985;SDS011;10154;52.474;10.768;2023-03-17T12:47:14;4.78;;;2.25;;
19985;SDS011;10154;52.474;10.768;2023-03-17T12:52:41;2.70;;;2.08;;
19985;SDS011;10154;52.474;10.768;2023-03-17T12:55:27;5.40;;;2.22;;
19985;SDS011;10154;52.474;10.768;2023-03-17T12:57:59;4.82;;;2.35;;
19985;SDS011;10154;52.474;10.768;2023-03-17T13:00:28;3.55;;;2.10;;
19985;SDS011;10154;52.474;10.768;2023-03-17T13:05:59;3.33;;;2.25;;
19985;SDS011;10154;52.474;10.768;2023-03-17T13:08:30;7.20;;;2.33;;
19985;SDS011;10154;52.474;10.768;2023-03-17T13:13:54;5.18;;;2.30;;
19985;SDS011;10154;52.474;10.768;2023-03-17T13:19:16;4.20;;;2.22;;
19985;SDS011;10154;52.474;10.768;2023-03-17T13:21:51;5.05;;;2.25;;
19985;SDS011;10154;52.474;10.768;2023-03-17T13:24:51;2.58;;;1.80;;
19985;SDS011;10154;52.474;10.768;2023-03-17T13:29:57;2.70;;;1.80;;
19985;SDS011;10154;52.474;10.768;2023-03-17T13:34:50;5.15;;;2.05;;
19985;SDS011;10154;52.474;10.768;2023-03-17T13:37:43;3.17;;;1.75;;
19985;SDS011;10154;52.474;10.768;2023-03-17T13:40:20;3.92;;;1.60;;
19985;SDS011;10154;52.474;10.768;2023-03-17T13:53:34;3.20;;;1.75;;
19985;SDS011;10154;52.474;10.768;2023-03-17T13:56:07;3.05;;;1.60;;
19985;SDS011;10154;52.474;10.768;2023-03-17T13:58:47;2.03;;;1.50;;
19985;SDS011;10154;52.474;10.768;2023-03-17T14:01:17;4.45;;;1.60;;
19985;SDS011;10154;52.474;10.768;2023-03-17T14:03:46;4.18;;;1.55;;
19985;SDS011;10154;52.474;10.768;2023-03-17T14:06:13;2.65;;;1.65;;
19985;SDS011;10154;52.474;10.768;2023-03-17T14:11:38;2.55;;;1.40;;
19985;SDS011;10154;52.474;10.768;2023-03-17T14:14:09;2.35;;;1.20;;
19985;SDS011;10154;52.474;10.768;2023-03-17T14:16:51;3.45;;;1.42;;
19985;SDS011;10154;52.474;10.768;2023-03-17T14:19:25;3.58;;;1.40;;
19985;SDS011;10154;52.474;10.768;2023-03-17T14:21:52;3.28;;;1.20;;
19985;SDS011;10154;52.474;10.768;2023-03-17T14:24:19;2.70;;;1.50;;
19985;SDS011;10154;52.474;10.768;2023-03-17T14:26:47;2.17;;;1.30;;
19985;SDS011;10154;52.474;10.768;2023-03-17T14:29:15;3.05;;;1.40;;
19985;SDS011;10154;52.474;10.768;2023-03-17T14:31:45;4.95;;;1.50;;
19985;SDS011;10154;52.474;10.768;2023-03-17T14:34:12;4.05;;;1.63;;
19985;SDS011;10154;52.474;10.768;2023-03-17T14:36:38;2.45;;;1.30;;
19985;SDS011;10154;52.474;10.768;2023-03-17T14:39:04;2.25;;;1.25;;
19985;SDS011;10154;52.474;10.768;2023-03-17T14:41:31;2.65;;;1.60;;
19985;SDS011;10154;52.474;10.768;2023-03-17T14:43:58;4.88;;;1.27;;
19985;SDS011;10154;52.474;10.768;2023-03-17T14:46:34;3.85;;;1.42;;
19985;SDS011;10154;52.474;10.768;2023-03-17T14:49:02;3.90;;;1.30;;
19985;SDS011;10154;52.474;10.768;2023-03-17T14:54:00;2.50;;;1.30;;
19985;SDS011;10154;52.474;10.768;2023-03-17T14:56:39;5.18;;;1.10;;
19985;SDS011;10154;52.474;10.768;2023-03-17T14:59:07;5.28;;;1.40;;
19985;SDS011;10154;52.474;10.768;2023-03-17T15:01:42;2.17;;;1.10;;
19985;SDS011;10154;52.474;10.768;2023-03-17T15:04:20;4.15;;;1.20;;
19985;SDS011;10154;52.474;10.768;2023-03-17T15:09:18;1.77;;;1.10;;
19985;SDS011;10154;52.474;10.768;2023-03-17T15:11:43;2.17;;;1.15;;
19985;SDS011;10154;52.474;10.768;2023-03-17T15:14:17;2.05;;;1.10;;
19985;SDS011;10154;52.474;10.768;2023-03-17T15:16:46;4.60;;;1.40;;
19985;SDS011;10154;52.474;10.768;2023-03-17T15:22:28;2.53;;;1.20;;
19985;SDS011;10154;52.474;10.768;2023-03-17T15:27:23;1.70;;;1.25;;
19985;SDS011;10154;52.474;10.768;2023-03-17T15:29:48;4.07;;;1.60;;
19985;SDS011;10154;52.474;10.768;2023-03-17T15:32:15;3.45;;;1.25;;
19985;SDS011;10154;52.474;10.768;2023-03-17T15:34:46;2.83;;;1.60;;
19985;SDS011;10154;52.474;10.768;2023-03-17T15:37:16;2.28;;;1.35;;
19985;SDS011;10154;52.474;10.768;2023-03-17T15:39:49;3.33;;;1.40;;
19985;SDS011;10154;52.474;10.768;2023-03-17T15:42:17;3.35;;;1.52;;
19985;SDS011;10154;52.474;10.768;2023-03-17T15:44:43;3.55;;;1.40;;
19985;SDS011;10154;52.474;10.768;2023-03-17T15:47:12;4.28;;;1.60;;
19985;SDS011;10154;52.474;10.768;2023-03-17T15:49:39;2.33;;;1.30;;
19985;SDS011;10154;52.474;10.768;2023-03-17T15:52:08;4.28;;;1.23;;
19985;SDS011;10154;52.474;10.768;2023-03-17T15:54:39;5.18;;;1.48;;
19985;SDS011;10154;52.474;10.768;2023-03-17T15:57:04;2.58;;;1.30;;
19985;SDS011;10154;52.474;10.768;2023-03-17T15:59:30;5.90;;;2.08;;
19985;SDS011;10154;52.474;10.768;2023-03-17T16:01:55;2.58;;;1.30;;
19985;SDS011;10154;52.474;10.768;2023-03-17T16:04:21;2.30;;;1.35;;
19985;SDS011;10154;52.474;10.768;2023-03-17T16:06:46;2.60;;;1.33;;
19985;SDS011;10154;52.474;10.768;2023-03-17T16:09:13;2.83;;;1.33;;
19985;SDS011;10154;52.474;10.768;2023-03-17T16:11:40;3.38;;;1.10;;
19985;SDS011;10154;52.474;10.768;2023-03-17T16:14:05;3.67;;;1.25;;
19985;SDS011;10154;52.474;10.768;2023-03-17T16:16:35;4.60;;;1.30;;
19985;SDS011;10154;52.474;10.768;2023-03-17T16:19:03;2.55;;;1.23;;
19985;SDS011;10154;52.474;10.768;2023-03-17T16:21:29;2.40;;;1.45;;
19985;SDS011;10154;52.474;10.768;2023-03-17T16:23:54;7.93;;;1.90;;
19985;SDS011;10154;52.474;10.768;2023-03-17T16:26:20;5.35;;;2.70;;